Time;durP1;ratioP1;P1;durP2;ratioP2;P2;SDS_P1;SDS_P2;PMS_P1;PMS_P2;Temp;Humidity;BMP_temperature;BMP_pressure;BME280_temperature;BME280_humidity;BME280_pressure;Samples;Min_cycle;Max_cycle;Signal;HPM_P1;HPM_P2
2021/12/04 00:00:42;;;;;;;0.00;0.00;;;;;;;;;;1734072;28;20350;-64
2021/12/04 00:01:36;;;;;;;0.00;0.00;;;;;;;;;;1737932;28;20234;-63
2021/12/04 00:02:28;;;;;;;0.00;0.00;;;;;;;;;;1733544;28;20326;-63
2021/12/04 00:03:20;;;;;;;0.00;0.00;;;;;;;;;;1733101;28;20210;-63
2021/12/04 00:04:12;;;;;;;0.00;0.00;;;;;;;;;;1735765;28;20294;-63
2021/12/04 00:05:05;;;;;;;0.00;0.00;;;;;;;;;;1736168;28;20598;-64
2021/12/04 00:06:03;;;;;;;0.00;0.00;;;;;;;;;;1736234;28;20226;-62
2021/12/04 00:06:54;;;;;;;0.10;0.10;;;;;;;;;;1735123;28;20232;-63
2021/12/04 00:07:46;;;;;;;0.00;0.00;;;;;;;;;;1738189;28;20257;-63
2021/12/04 00:08:37;;;;;;;0.00;0.00;;;;;;;;;;1737567;28;20490;-62
2021/12/04 00:09:30;;;;;;;0.00;0.00;;;;;;;;;;1737402;28;20692;-64
2021/12/04 00:10:27;;;;;;;0.00;0.00;;;;;;;;;;1734439;28;20206;-64
2021/12/04 00:11:19;;;;;;;0.03;0.03;;;;;;;;;;1738538;28;20210;-63
2021/12/04 00:12:10;;;;;;;0.00;0.00;;;;;;;;;;1736979;28;20209;-64
2021/12/04 00:13:04;;;;;;;0.00;0.00;;;;;;;;;;1732254;28;20195;-62
2021/12/04 00:13:55;;;;;;;0.00;0.00;;;;;;;;;;1734871;28;20612;-64
2021/12/04 00:14:48;;;;;;;0.00;0.00;;;;;;;;;;1732601;28;20230;-63
2021/12/04 00:15:40;;;;;;;0.00;0.00;;;;;;;;;;1733133;28;20211;-63
2021/12/04 00:16:32;;;;;;;0.00;0.00;;;;;;;;;;1738164;28;20213;-62
2021/12/04 00:17:23;;;;;;;0.00;0.00;;;;;;;;;;1731716;28;20207;-64
2021/12/04 00:18:15;;;;;;;0.00;0.00;;;;;;;;;;1737824;28;20195;-63
2021/12/04 00:19:06;;;;;;;0.10;0.10;;;;;;;;;;1735296;28;20308;-64
2021/12/04 00:19:59;;;;;;;0.00;0.00;;;;;;;;;;1736844;28;20699;-62
2021/12/04 00:20:50;;;;;;;0.00;0.00;;;;;;;;;;1737156;28;20235;-63
2021/12/04 00:21:42;;;;;;;0.00;0.00;;;;;;;;;;1737698;28;20222;-63
2021/12/04 00:22:34;;;;;;;0.00;0.00;;;;;;;;;;1738430;28;20218;-62
2021/12/04 00:23:26;;;;;;;0.00;0.00;;;;;;;;;;1737913;28;20760;-63
2021/12/04 00:24:17;;;;;;;0.00;0.00;;;;;;;;;;1732819;28;20203;-63
2021/12/04 00:25:10;;;;;;;0.00;0.00;;;;;;;;;;1734970;28;20482;-63
2021/12/04 00:26:01;;;;;;;0.00;0.00;;;;;;;;;;1731075;28;20226;-63
2021/12/04 00:26:54;;;;;;;0.00;0.00;;;;;;;;;;1731987;28;20636;-63
2021/12/04 00:27:45;;;;;;;0.08;0.08;;;;;;;;;;1738064;28;20207;-63
2021/12/04 00:28:39;;;;;;;0.00;0.00;;;;;;;;;;1737765;28;20609;-64
2021/12/04 00:29:30;;;;;;;0.10;0.10;;;;;;;;;;1731531;28;20207;-63
2021/12/04 00:30:23;;;;;;;0.00;0.00;;;;;;;;;;1732770;28;20203;-64
2021/12/04 00:31:14;;;;;;;0.00;0.00;;;;;;;;;;1737930;28;20261;-62
2021/12/04 00:32:11;;;;;;;0.00;0.00;;;;;;;;;;1733116;28;20239;-63
2021/12/04 00:33:07;;;;;;;0.00;0.00;;;;;;;;;;1737938;28;20234;-61
2021/12/04 00:33:59;;;;;;;0.00;0.00;;;;;;;;;;1734342;28;20197;-64
2021/12/04 00:34:56;;;;;;;0.00;0.00;;;;;;;;;;1736833;28;20254;-63
2021/12/04 00:35:51;;;;;;;0.00;0.00;;;;;;;;;;1734470;28;20231;-63
2021/12/04 00:37:00;;;;;;;0.10;0.10;;;;;;;;;;1736563;28;20312;-64
2021/12/04 00:49:33;;;;;;;0.00;0.00;;;;;;;;;;1731560;28;20621;-62
2021/12/04 00:50:25;;;;;;;0.03;0.03;;;;;;;;;;1732752;28;20206;-63
2021/12/04 00:51:17;;;;;;;0.08;0.08;;;;;;;;;;1738195;28;20493;-63
2021/12/04 00:52:09;;;;;;;0.00;0.00;;;;;;;;;;1734193;28;20233;-62
2021/12/04 00:53:00;;;;;;;0.00;0.00;;;;;;;;;;1737910;28;20247;-62
2021/12/04 00:53:54;;;;;;;0.00;0.00;;;;;;;;;;1736521;28;20270;-63
2021/12/04 00:54:46;;;;;;;0.00;0.00;;;;;;;;;;1734004;28;20215;-62
2021/12/04 00:55:38;;;;;;;0.00;0.00;;;;;;;;;;1732038;28;20564;-61
2021/12/04 00:56:29;;;;;;;0.00;0.00;;;;;;;;;;1737643;28;20687;-62
2021/12/04 00:57:21;;;;;;;0.00;0.00;;;;;;;;;;1735210;28;20736;-62
2021/12/04 00:58:12;;;;;;;0.00;0.00;;;;;;;;;;1732813;28;20206;-61
2021/12/04 00:59:06;;;;;;;0.00;0.00;;;;;;;;;;1734747;28;20578;-62
2021/12/04 00:59:57;;;;;;;0.00;0.00;;;;;;;;;;1733413;28;20685;-63
2021/12/04 01:00:49;;;;;;;0.00;0.00;;;;;;;;;;1732875;28;20696;-61
2021/12/04 01:01:42;;;;;;;0.00;0.00;;;;;;;;;;1733896;28;20509;-62
2021/12/04 01:02:34;;;;;;;0.00;0.00;;;;;;;;;;1733382;28;20203;-62
2021/12/04 01:03:26;;;;;;;0.00;0.00;;;;;;;;;;1734608;28;20240;-62
2021/12/04 01:04:19;;;;;;;0.00;0.00;;;;;;;;;;1732881;28;20207;-62
2021/12/04 01:05:10;;;;;;;0.00;0.00;;;;;;;;;;1732400;28;20210;-63
2021/12/04 01:06:02;;;;;;;0.00;0.00;;;;;;;;;;1736490;28;20657;-62
2021/12/04 01:06:53;;;;;;;0.00;0.00;;;;;;;;;;1734285;28;20230;-63
2021/12/04 01:07:46;;;;;;;0.00;0.00;;;;;;;;;;1736720;28;20588;-62
2021/12/04 01:08:37;;;;;;;0.00;0.00;;;;;;;;;;1737747;28;20688;-61
2021/12/04 01:09:29;;;;;;;0.00;0.00;;;;;;;;;;1731118;28;20203;-63
2021/12/04 01:10:20;;;;;;;0.00;0.00;;;;;;;;;;1736529;28;20214;-63
2021/12/04 01:11:16;;;;;;;0.00;0.00;;;;;;;;;;1737926;28;20274;-63
2021/12/04 01:12:08;;;;;;;0.00;0.00;;;;;;;;;;1733877;28;20208;-61
2021/12/04 01:13:03;;;;;;;0.00;0.00;;;;;;;;;;1738538;28;20252;-59
2021/12/04 01:13:54;;;;;;;0.00;0.00;;;;;;;;;;1733733;28;20192;-63
2021/12/04 01:14:48;;;;;;;0.00;0.00;;;;;;;;;;1737780;28;20544;-63
2021/12/04 01:15:39;;;;;;;0.00;0.00;;;;;;;;;;1733067;28;20773;-60
2021/12/04 01:16:32;;;;;;;0.00;0.00;;;;;;;;;;1737649;28;20291;-63
2021/12/04 01:17:23;;;;;;;0.00;0.00;;;;;;;;;;1731418;28;20207;-63
2021/12/04 01:18:15;;;;;;;0.00;0.00;;;;;;;;;;1736585;28;20567;-63
2021/12/04 01:19:06;;;;;;;0.00;0.00;;;;;;;;;;1735726;28;20211;-62
2021/12/04 01:19:58;;;;;;;0.00;0.00;;;;;;;;;;1740816;28;20195;-62
2021/12/04 01:20:50;;;;;;;0.00;0.00;;;;;;;;;;1740052;28;20696;-63
2021/12/04 01:21:42;;;;;;;0.10;0.10;;;;;;;;;;1737790;28;20207;-61
2021/12/04 01:22:33;;;;;;;0.00;0.00;;;;;;;;;;1737172;28;20207;-62
2021/12/04 01:23:26;;;;;;;0.00;0.00;;;;;;;;;;1737037;28;20549;-63
2021/12/04 01:24:17;;;;;;;0.00;0.00;;;;;;;;;;1737524;28;20203;-61
2021/12/04 01:25:10;;;;;;;0.00;0.00;;;;;;;;;;1738405;28;20202;-61
2021/12/04 01:26:01;;;;;;;0.10;0.10;;;;;;;;;;1732323;28;20832;-63
2021/12/04 01:26:54;;;;;;;0.00;0.00;;;;;;;;;;1733477;28;20763;-63
2021/12/04 01:27:46;;;;;;;0.00;0.00;;;;;;;;;;1739113;28;20624;-61
2021/12/04 01:28:38;;;;;;;0.00;0.00;;;;;;;;;;1738643;28;20709;-62
2021/12/04 01:29:29;;;;;;;0.10;0.10;;;;;;;;;;1732151;28;20207;-62
2021/12/04 01:30:23;;;;;;;0.00;0.00;;;;;;;;;;1733523;28;20230;-62
2021/12/04 01:31:14;;;;;;;0.00;0.00;;;;;;;;;;1739375;28;20712;-63
2021/12/04 01:32:07;;;;;;;0.00;0.00;;;;;;;;;;1738069;28;20602;-63
2021/12/04 01:32:58;;;;;;;0.00;0.00;;;;;;;;;;1732525;28;20588;-62
2021/12/04 01:33:50;;;;;;;0.00;0.00;;;;;;;;;;1735276;28;20262;-62
2021/12/04 01:34:41;;;;;;;0.00;0.00;;;;;;;;;;1738596;28;20241;-61
2021/12/04 01:35:33;;;;;;;0.10;0.10;;;;;;;;;;1735167;28;20234;-63
2021/12/04 01:36:25;;;;;;;0.00;0.00;;;;;;;;;;1732827;28;20236;-63
2021/12/04 01:37:17;;;;;;;0.00;0.00;;;;;;;;;;1736649;28;20261;-62
2021/12/04 01:38:10;;;;;;;0.00;0.00;;;;;;;;;;1732837;28;20207;-63
2021/12/04 01:39:02;;;;;;;0.00;0.00;;;;;;;;;;1736200;28;20199;-63
2021/12/04 01:39:53;;;;;;;0.00;0.00;;;;;;;;;;1739040;28;20546;-63
2021/12/04 01:40:45;;;;;;;0.00;0.00;;;;;;;;;;1738239;28;20274;-63
2021/12/04 01:41:37;;;;;;;0.00;0.00;;;;;;;;;;1737501;28;20209;-63
2021/12/04 01:42:32;;;;;;;0.00;0.00;;;;;;;;;;1735690;28;20203;-62
2021/12/04 01:43:23;;;;;;;0.00;0.00;;;;;;;;;;1733622;28;20230;-63
2021/12/04 01:44:15;;;;;;;0.00;0.00;;;;;;;;;;1736996;28;20555;-61
2021/12/04 01:45:07;;;;;;;0.00;0.00;;;;;;;;;;1738288;28;20210;-62
2021/12/04 01:46:02;;;;;;;0.00;0.00;;;;;;;;;;1733283;28;20227;-63
2021/12/04 01:46:56;;;;;;;0.00;0.00;;;;;;;;;;1736259;28;20720;-63
2021/12/04 01:47:48;;;;;;;0.00;0.00;;;;;;;;;;1733114;28;20212;-63
2021/12/04 01:48:39;;;;;;;0.00;0.00;;;;;;;;;;1737641;28;20218;-63
2021/12/04 01:49:31;;;;;;;0.00;0.00;;;;;;;;;;1731668;28;20813;-61
2021/12/04 01:50:23;;;;;;;0.10;0.10;;;;;;;;;;1736583;28;20210;-62
2021/12/04 01:51:15;;;;;;;0.00;0.00;;;;;;;;;;1732113;28;20218;-63
2021/12/04 01:52:07;;;;;;;0.00;0.00;;;;;;;;;;1734432;28;20231;-61
2021/12/04 01:53:00;;;;;;;0.00;0.00;;;;;;;;;;1739119;28;20199;-63
2021/12/04 01:53:52;;;;;;;0.00;0.00;;;;;;;;;;1737131;28;20252;-62
2021/12/04 01:54:44;;;;;;;0.00;0.00;;;;;;;;;;1734983;28;20257;-61
2021/12/04 01:55:36;;;;;;;0.10;0.10;;;;;;;;;;1733831;28;20612;-62
2021/12/04 01:56:30;;;;;;;0.00;0.00;;;;;;;;;;1738149;28;20211;-63
2021/12/04 01:57:22;;;;;;;0.00;0.00;;;;;;;;;;1736064;28;20207;-62
2021/12/04 01:58:15;;;;;;;0.00;0.00;;;;;;;;;;1733100;28;20200;-61
2021/12/04 01:59:06;;;;;;;0.00;0.00;;;;;;;;;;1736015;28;20584;-61
2021/12/04 01:59:59;;;;;;;0.00;0.00;;;;;;;;;;1738831;28;20199;-64
2021/12/04 02:00:50;;;;;;;0.00;0.00;;;;;;;;;;1734391;28;20231;-62
2021/12/04 02:01:43;;;;;;;0.00;0.00;;;;;;;;;;1734598;28;20578;-63
2021/12/04 02:02:35;;;;;;;0.00;0.00;;;;;;;;;;1734006;28;20219;-62
2021/12/04 02:03:27;;;;;;;0.00;0.00;;;;;;;;;;1735830;28;20681;-61
2021/12/04 02:04:18;;;;;;;0.00;0.00;;;;;;;;;;1733266;28;20199;-62
2021/12/04 02:05:10;;;;;;;0.00;0.00;;;;;;;;;;1735530;28;20206;-63
2021/12/04 02:06:02;;;;;;;0.00;0.00;;;;;;;;;;1732552;28;20605;-63
2021/12/04 02:06:54;;;;;;;0.00;0.00;;;;;;;;;;1736777;28;20211;-63
2021/12/04 02:07:46;;;;;;;0.00;0.00;;;;;;;;;;1732828;28;20211;-63
2021/12/04 02:08:38;;;;;;;0.13;0.13;;;;;;;;;;1736462;28;20582;-63
2021/12/04 02:09:29;;;;;;;0.10;0.10;;;;;;;;;;1738373;28;20206;-63
2021/12/04 02:10:21;;;;;;;0.10;0.10;;;;;;;;;;1734603;28;20196;-63
2021/12/04 02:11:13;;;;;;;0.00;0.00;;;;;;;;;;1738896;28;20738;-63
2021/12/04 02:12:06;;;;;;;0.20;0.20;;;;;;;;;;1734888;28;20600;-60
2021/12/04 02:12:57;;;;;;;0.00;0.00;;;;;;;;;;1739371;28;20202;-60
2021/12/04 02:13:50;;;;;;;0.00;0.00;;;;;;;;;;1736217;28;20199;-61
2021/12/04 02:14:42;;;;;;;0.13;0.13;;;;;;;;;;1731566;28;20204;-61
2021/12/04 02:15:34;;;;;;;0.00;0.00;;;;;;;;;;1735415;28;20211;-59
2021/12/04 02:16:25;;;;;;;0.00;0.00;;;;;;;;;;1732419;28;20221;-62
2021/12/04 02:17:18;;;;;;;0.00;0.00;;;;;;;;;;1733270;28;20695;-62
2021/12/04 02:18:10;;;;;;;0.10;0.10;;;;;;;;;;1737668;28;20564;-60
2021/12/04 02:19:01;;;;;;;0.00;0.00;;;;;;;;;;1736110;28;20212;-60
2021/12/04 02:19:53;;;;;;;0.00;0.00;;;;;;;;;;1743505;28;20210;-64
2021/12/04 02:20:46;;;;;;;0.00;0.00;;;;;;;;;;1739871;28;20600;-62
2021/12/04 02:21:38;;;;;;;0.00;0.00;;;;;;;;;;1738318;28;20676;-60
2021/12/04 02:22:29;;;;;;;0.10;0.10;;;;;;;;;;1736482;28;20207;-61
2021/12/04 02:23:21;;;;;;;0.00;0.00;;;;;;;;;;1737673;28;20203;-62
2021/12/04 02:24:13;;;;;;;0.00;0.00;;;;;;;;;;1732371;28;20530;-61
2021/12/04 02:25:07;;;;;;;0.00;0.00;;;;;;;;;;1733449;28;20203;-60
2021/12/04 02:25:58;;;;;;;0.00;0.00;;;;;;;;;;1736673;28;20257;-60
2021/12/04 02:26:52;;;;;;;0.00;0.00;;;;;;;;;;1737358;28;20222;-62
2021/12/04 02:27:43;;;;;;;0.00;0.00;;;;;;;;;;1733086;28;20219;-61
2021/12/04 02:28:36;;;;;;;0.00;0.00;;;;;;;;;;1733401;28;20204;-62
2021/12/04 02:29:27;;;;;;;0.00;0.00;;;;;;;;;;1738430;28;20211;-60
2021/12/04 02:30:24;;;;;;;0.00;0.00;;;;;;;;;;1735412;28;20196;-60
2021/12/04 02:31:15;;;;;;;0.10;0.10;;;;;;;;;;1733741;28;20608;-60
2021/12/04 02:32:07;;;;;;;0.00;0.00;;;;;;;;;;1734158;28;20286;-62
2021/12/04 02:32:59;;;;;;;0.00;0.00;;;;;;;;;;1738407;28;20272;-63
2021/12/04 02:33:51;;;;;;;0.10;0.10;;;;;;;;;;1737330;28;20257;-60
2021/12/04 02:34:43;;;;;;;0.00;0.00;;;;;;;;;;1732319;28;20243;-65
2021/12/04 02:35:35;;;;;;;0.10;0.10;;;;;;;;;;1735110;28;20199;-63
2021/12/04 02:36:28;;;;;;;0.00;0.00;;;;;;;;;;1732849;28;20214;-61
2021/12/04 02:37:20;;;;;;;0.00;0.00;;;;;;;;;;1735589;28;20234;-61
2021/12/04 02:38:11;;;;;;;0.00;0.00;;;;;;;;;;1732147;28;20200;-61
2021/12/04 02:39:04;;;;;;;0.00;0.00;;;;;;;;;;1734948;28;20256;-60
2021/12/04 02:39:58;;;;;;;0.00;0.00;;;;;;;;;;1743068;28;20248;-63
2021/12/04 02:40:50;;;;;;;0.00;0.00;;;;;;;;;;1738156;28;20227;-61
2021/12/04 02:41:42;;;;;;;0.00;0.00;;;;;;;;;;1738452;28;20205;-61
2021/12/04 02:42:34;;;;;;;0.00;0.00;;;;;;;;;;1739178;28;20213;-61
2021/12/04 02:43:25;;;;;;;0.00;0.00;;;;;;;;;;1736252;28;20596;-60
2021/12/04 02:44:18;;;;;;;0.00;0.00;;;;;;;;;;1736793;28;20577;-61
2021/12/04 02:45:10;;;;;;;0.00;0.00;;;;;;;;;;1737632;28;20684;-60
2021/12/04 02:46:02;;;;;;;0.10;0.10;;;;;;;;;;1732288;28;20223;-61
2021/12/04 02:46:53;;;;;;;0.00;0.00;;;;;;;;;;1736256;28;20230;-60
2021/12/04 02:47:46;;;;;;;0.00;0.00;;;;;;;;;;1732614;28;20205;-60
2021/12/04 02:48:37;;;;;;;0.00;0.00;;;;;;;;;;1736781;28;20217;-61
2021/12/04 02:49:29;;;;;;;0.00;0.00;;;;;;;;;;1731240;28;20681;-61
2021/12/04 02:50:20;;;;;;;0.10;0.10;;;;;;;;;;1736591;28;20206;-61
2021/12/04 02:51:15;;;;;;;0.00;0.00;;;;;;;;;;1738619;28;20372;-63
2021/12/04 02:52:09;;;;;;;0.00;0.00;;;;;;;;;;1737534;28;20203;-62
2021/12/04 02:53:01;;;;;;;0.00;0.00;;;;;;;;;;1732206;28;20211;-62
2021/12/04 02:53:52;;;;;;;0.00;0.00;;;;;;;;;;1735618;28;20207;-63
2021/12/04 02:54:45;;;;;;;0.00;0.00;;;;;;;;;;1734418;28;20204;-63
2021/12/04 02:55:36;;;;;;;0.10;0.10;;;;;;;;;;1736701;28;20241;-63
2021/12/04 02:56:28;;;;;;;0.00;0.00;;;;;;;;;;1737520;28;20207;-61
2021/12/04 02:57:20;;;;;;;0.00;0.00;;;;;;;;;;1735919;28;20222;-59
2021/12/04 02:58:13;;;;;;;0.00;0.00;;;;;;;;;;1733288;28;20231;-62
2021/12/04 02:59:04;;;;;;;0.00;0.00;;;;;;;;;;1735631;28;20210;-59
2021/12/04 02:59:57;;;;;;;0.00;0.00;;;;;;;;;;1738301;28;20487;-60
2021/12/04 03:00:50;;;;;;;0.00;0.00;;;;;;;;;;1737677;28;20254;-64
2021/12/04 03:01:42;;;;;;;0.00;0.00;;;;;;;;;;1738393;28;20207;-64
2021/12/04 03:02:33;;;;;;;0.10;0.10;;;;;;;;;;1733249;28;20222;-62
2021/12/04 03:03:26;;;;;;;0.00;0.00;;;;;;;;;;1735074;28;20260;-59
2021/12/04 03:04:18;;;;;;;0.00;0.00;;;;;;;;;;1733367;28;20211;-61
2021/12/04 03:05:11;;;;;;;0.00;0.00;;;;;;;;;;1735124;28;20220;-62
2021/12/04 03:06:02;;;;;;;0.00;0.00;;;;;;;;;;1732267;28;20298;-62
2021/12/04 03:06:55;;;;;;;0.10;0.10;;;;;;;;;;1732673;28;20224;-62
2021/12/04 03:07:47;;;;;;;0.00;0.00;;;;;;;;;;1738207;28;20211;-62
2021/12/04 03:08:39;;;;;;;0.00;0.00;;;;;;;;;;1733791;28;20211;-60
2021/12/04 03:09:30;;;;;;;0.10;0.10;;;;;;;;;;1731636;28;20208;-59
2021/12/04 03:10:23;;;;;;;0.00;0.00;;;;;;;;;;1737037;28;20212;-61
2021/12/04 03:11:16;;;;;;;0.00;0.00;;;;;;;;;;1731354;28;20281;-60
2021/12/04 03:12:09;;;;;;;0.10;0.10;;;;;;;;;;1734188;28;20937;-60
2021/12/04 03:13:00;;;;;;;0.00;0.00;;;;;;;;;;1738457;28;20199;-61
2021/12/04 03:13:52;;;;;;;0.00;0.00;;;;;;;;;;1734975;28;20498;-60
2021/12/04 03:14:43;;;;;;;0.00;0.00;;;;;;;;;;1737797;28;20203;-64
2021/12/04 03:15:37;;;;;;;0.00;0.00;;;;;;;;;;1735107;28;20207;-60
2021/12/04 03:16:28;;;;;;;0.00;0.00;;;;;;;;;;1732963;28;20207;-60
2021/12/04 03:17:22;;;;;;;0.00;0.00;;;;;;;;;;1735599;28;20223;-61
2021/12/04 03:18:13;;;;;;;0.00;0.00;;;;;;;;;;1737471;28;20199;-60
2021/12/04 03:19:06;;;;;;;0.00;0.00;;;;;;;;;;1739072;28;20201;-60
2021/12/04 03:19:57;;;;;;;0.00;0.00;;;;;;;;;;1742931;28;20202;-60
2021/12/04 03:20:51;;;;;;;0.00;0.00;;;;;;;;;;1735911;28;20293;-60
2021/12/04 03:21:43;;;;;;;0.00;0.00;;;;;;;;;;1733137;28;20256;-59
2021/12/04 03:22:35;;;;;;;0.00;0.00;;;;;;;;;;1736762;28;20199;-63
2021/12/04 03:23:30;;;;;;;0.00;0.00;;;;;;;;;;1737745;28;20247;-62
2021/12/04 03:24:23;;;;;;;0.00;0.00;;;;;;;;;;1732959;28;20655;-61
2021/12/04 03:25:16;;;;;;;0.00;0.00;;;;;;;;;;1735604;28;20594;-62
2021/12/04 03:26:10;;;;;;;0.00;0.00;;;;;;;;;;1731477;28;20247;-60
2021/12/04 03:27:01;;;;;;;0.00;0.00;;;;;;;;;;1736081;28;20261;-62
2021/12/04 03:27:53;;;;;;;0.00;0.00;;;;;;;;;;1731844;28;20250;-62
2021/12/04 03:28:46;;;;;;;0.00;0.00;;;;;;;;;;1737037;28;20297;-61
2021/12/04 03:29:41;;;;;;;0.00;0.00;;;;;;;;;;1731016;28;20214;-59
2021/12/04 03:30:39;;;;;;;0.00;0.00;;;;;;;;;;1734080;28;20200;-60
2021/12/04 03:31:44;;;;;;;0.05;0.05;;;;;;;;;;1738181;28;20195;-63
2021/12/04 03:40:57;;;;;;;0.00;0.00;;;;;;;;;;1737587;28;20291;-62
2021/12/04 03:41:48;;;;;;;0.00;0.00;;;;;;;;;;1738086;28;20206;-59
2021/12/04 03:42:41;;;;;;;0.00;0.00;;;;;;;;;;1733587;28;20208;-61
2021/12/04 03:43:32;;;;;;;0.00;0.00;;;;;;;;;;1733143;28;20245;-60
2021/12/04 03:44:24;;;;;;;0.00;0.00;;;;;;;;;;1736837;28;20578;-60
2021/12/04 03:45:15;;;;;;;0.00;0.00;;;;;;;;;;1737610;28;20199;-60
2021/12/04 03:46:10;;;;;;;0.00;0.00;;;;;;;;;;1737721;28;20250;-62
2021/12/04 03:47:02;;;;;;;0.00;0.00;;;;;;;;;;1737720;28;20276;-61
2021/12/04 03:48:03;;;;;;;0.00;0.00;;;;;;;;;;1731615;28;20200;-62
2021/12/04 03:48:54;;;;;;;0.00;0.00;;;;;;;;;;1734455;28;20590;-59
2021/12/04 03:49:47;;;;;;;0.08;0.08;;;;;;;;;;1737852;28;20214;-59
2021/12/04 03:50:38;;;;;;;0.00;0.00;;;;;;;;;;1733324;28;20214;-60
2021/12/04 03:51:30;;;;;;;0.00;0.00;;;;;;;;;;1737920;28;20253;-61
2021/12/04 03:52:21;;;;;;;0.00;0.00;;;;;;;;;;1735022;28;20767;-60
2021/12/04 03:53:13;;;;;;;0.00;0.00;;;;;;;;;;1732877;28;20195;-62
2021/12/04 03:54:05;;;;;;;0.00;0.00;;;;;;;;;;1734248;28;20215;-61
2021/12/04 03:54:58;;;;;;;0.00;0.00;;;;;;;;;;1734907;28;20730;-60
2021/12/04 03:55:50;;;;;;;0.00;0.00;;;;;;;;;;1734595;28;20233;-61
2021/12/04 03:56:42;;;;;;;0.00;0.00;;;;;;;;;;1737259;28;20673;-61
2021/12/04 03:57:34;;;;;;;0.00;0.00;;;;;;;;;;1733383;28;20894;-60
2021/12/04 03:58:26;;;;;;;0.00;0.00;;;;;;;;;;1732217;28;20195;-61
2021/12/04 03:59:20;;;;;;;0.20;0.20;;;;;;;;;;1736650;28;20218;-61
2021/12/04 04:00:13;;;;;;;0.00;0.00;;;;;;;;;;1735970;28;20596;-61
2021/12/04 04:01:04;;;;;;;0.00;0.00;;;;;;;;;;1736907;28;20237;-61
2021/12/04 04:01:56;;;;;;;0.00;0.00;;;;;;;;;;1738129;28;20624;-61
2021/12/04 04:02:47;;;;;;;0.00;0.00;;;;;;;;;;1731148;28;20208;-60
2021/12/04 04:03:40;;;;;;;0.10;0.10;;;;;;;;;;1731802;28;20550;-61
2021/12/04 04:04:31;;;;;;;0.00;0.00;;;;;;;;;;1738512;28;20207;-61
2021/12/04 04:05:23;;;;;;;0.00;0.00;;;;;;;;;;1733492;28;20585;-60
2021/12/04 04:06:15;;;;;;;0.00;0.00;;;;;;;;;;1738556;28;20297;-61
2021/12/04 04:07:07;;;;;;;0.00;0.00;;;;;;;;;;1734232;28;20247;-61
2021/12/04 04:07:58;;;;;;;0.00;0.00;;;;;;;;;;1738444;28;21030;-61
2021/12/04 04:08:50;;;;;;;0.00;0.00;;;;;;;;;;1735883;28;20202;-61
2021/12/04 04:09:42;;;;;;;0.00;0.00;;;;;;;;;;1730752;28;20598;-61
2021/12/04 04:10:35;;;;;;;0.00;0.00;;;;;;;;;;1735842;28;20199;-61
2021/12/04 04:11:27;;;;;;;0.00;0.00;;;;;;;;;;1731661;28;20207;-61
2021/12/04 04:12:19;;;;;;;0.00;0.00;;;;;;;;;;1736149;28;20259;-61
2021/12/04 04:13:12;;;;;;;0.00;0.00;;;;;;;;;;1732622;28;20721;-61
2021/12/04 04:14:04;;;;;;;0.00;0.00;;;;;;;;;;1734849;28;20198;-61
2021/12/04 04:14:55;;;;;;;0.10;0.10;;;;;;;;;;1736560;28;20691;-61
2021/12/04 04:15:48;;;;;;;0.00;0.00;;;;;;;;;;1733556;28;20745;-61
2021/12/04 04:16:40;;;;;;;0.00;0.00;;;;;;;;;;1737202;28;20624;-61
2021/12/04 04:17:41;;;;;;;0.00;0.00;;;;;;;;;;1735647;28;20292;-61
2021/12/04 04:18:33;;;;;;;0.00;0.00;;;;;;;;;;1738044;28;20696;-61
2021/12/04 04:19:26;;;;;;;0.00;0.00;;;;;;;;;;1737917;28;20198;-61
2021/12/04 04:20:19;;;;;;;0.00;0.00;;;;;;;;;;1737312;28;20321;-61
2021/12/04 04:21:11;;;;;;;0.00;0.00;;;;;;;;;;1729705;28;20225;-61
2021/12/04 04:22:02;;;;;;;0.00;0.00;;;;;;;;;;1736815;28;20678;-61
2021/12/04 04:22:54;;;;;;;0.00;0.00;;;;;;;;;;1731914;28;20196;-61
2021/12/04 04:23:46;;;;;;;0.00;0.00;;;;;;;;;;1733041;28;20199;-61
2021/12/04 04:24:37;;;;;;;0.00;0.00;;;;;;;;;;1738703;28;20281;-61
2021/12/04 04:25:29;;;;;;;0.00;0.00;;;;;;;;;;1732828;28;20208;-61
2021/12/04 04:26:22;;;;;;;0.00;0.00;;;;;;;;;;1738278;28;20561;-60
2021/12/04 04:27:14;;;;;;;0.00;0.00;;;;;;;;;;1735424;28;20207;-61
2021/12/04 04:28:05;;;;;;;0.00;0.00;;;;;;;;;;1731931;28;20207;-61
2021/12/04 04:28:57;;;;;;;0.00;0.00;;;;;;;;;;1736129;28;20210;-61
2021/12/04 04:29:48;;;;;;;0.00;0.00;;;;;;;;;;1732012;28;20221;-61
2021/12/04 04:30:41;;;;;;;0.00;0.00;;;;;;;;;;1733948;28;20231;-61
2021/12/04 04:31:35;;;;;;;0.00;0.00;;;;;;;;;;1741119;28;20274;-61
2021/12/04 04:32:28;;;;;;;0.00;0.00;;;;;;;;;;1734920;28;20209;-61
2021/12/04 04:33:19;;;;;;;0.10;0.10;;;;;;;;;;1736535;28;20285;-61
2021/12/04 04:34:12;;;;;;;0.00;0.00;;;;;;;;;;1735176;28;20546;-61
2021/12/04 04:35:08;;;;;;;0.00;0.00;;;;;;;;;;1737959;28;20237;-61
2021/12/04 04:36:09;;;;;;;0.00;0.00;;;;;;;;;;1731956;28;20227;-61
2021/12/04 04:37:12;;;;;;;0.20;0.20;;;;;;;;;;1737015;28;20739;-61
2021/12/04 04:38:13;;;;;;;0.00;0.00;;;;;;;;;;1731249;28;20414;-61
2021/12/04 04:39:16;;;;;;;0.00;0.00;;;;;;;;;;1731202;28;20223;-61
2021/12/04 04:58:11;;;;;;;0.10;0.10;;;;;;;;;;1711506;28;20295;-61
2021/12/04 04:59:14;;;;;;;0.00;0.00;;;;;;;;;;1715506;28;20200;-61
2021/12/04 05:01:51;;;;;;;0.00;0.00;;;;;;;;;;1716666;28;20880;-61
2021/12/04 05:12:02;;;;;;;0.00;0.00;;;;;;;;;;1716052;28;20203;-64
2021/12/04 05:12:56;;;;;;;0.00;0.00;;;;;;;;;;1712897;28;20285;-63
2021/12/04 05:13:51;;;;;;;0.10;0.10;;;;;;;;;;1723293;28;20631;-64
2021/12/04 05:14:44;;;;;;;0.00;0.00;;;;;;;;;;1725926;28;20705;-64
2021/12/04 05:15:41;;;;;;;0.00;0.00;;;;;;;;;;1717505;28;20287;-64
2021/12/04 05:16:43;;;;;;;0.00;0.00;;;;;;;;;;1719366;28;20280;-62
2021/12/04 05:17:52;;;;;;;0.00;0.00;;;;;;;;;;1716987;28;20227;-63
2021/12/04 05:18:51;;;;;;;0.00;0.00;;;;;;;;;;1718694;28;20293;-63
2021/12/04 05:19:44;;;;;;;0.00;0.00;;;;;;;;;;1719107;28;20212;-63
2021/12/04 05:20:38;;;;;;;0.00;0.00;;;;;;;;;;1718745;28;20209;-63
2021/12/04 05:21:30;;;;;;;0.00;0.00;;;;;;;;;;1718433;28;20266;-63
2021/12/04 05:22:23;;;;;;;0.10;0.10;;;;;;;;;;1719489;28;20239;-63
2021/12/04 05:23:14;;;;;;;0.10;0.10;;;;;;;;;;1718857;28;20258;-62
2021/12/04 05:24:06;;;;;;;0.00;0.00;;;;;;;;;;1719386;28;20204;-62
2021/12/04 05:24:57;;;;;;;0.00;0.00;;;;;;;;;;1718969;28;20273;-64
2021/12/04 05:25:50;;;;;;;0.00;0.00;;;;;;;;;;1718653;28;20355;-62
2021/12/04 05:26:42;;;;;;;0.03;0.03;;;;;;;;;;1719288;28;20213;-64
2021/12/04 05:27:34;;;;;;;0.10;0.10;;;;;;;;;;1719121;28;20710;-64
2021/12/04 05:28:26;;;;;;;0.00;0.00;;;;;;;;;;1718566;28;20845;-62
2021/12/04 05:29:19;;;;;;;0.00;0.00;;;;;;;;;;1719287;28;20647;-63
2021/12/04 05:30:11;;;;;;;0.00;0.00;;;;;;;;;;1718768;28;20205;-63
2021/12/04 05:31:03;;;;;;;0.00;0.00;;;;;;;;;;1717643;28;20776;-64
2021/12/04 05:31:54;;;;;;;0.03;0.03;;;;;;;;;;1716511;28;20761;-62
2021/12/04 05:32:47;;;;;;;0.03;0.03;;;;;;;;;;1719387;28;20636;-64
2021/12/04 05:33:39;;;;;;;0.00;0.00;;;;;;;;;;1718000;28;20212;-63
2021/12/04 05:34:31;;;;;;;0.00;0.00;;;;;;;;;;1719386;28;20734;-63
2021/12/04 05:35:22;;;;;;;0.00;0.00;;;;;;;;;;1717208;28;20213;-62
2021/12/04 05:36:15;;;;;;;0.00;0.00;;;;;;;;;;1719101;28;20193;-63
2021/12/04 05:37:06;;;;;;;0.00;0.00;;;;;;;;;;1718922;28;20225;-62
2021/12/04 05:37:58;;;;;;;0.00;0.00;;;;;;;;;;1719434;28;20373;-63
2021/12/04 05:38:51;;;;;;;0.00;0.00;;;;;;;;;;1718647;28;20204;-63
2021/12/04 05:39:42;;;;;;;0.00;0.00;;;;;;;;;;1718686;28;20208;-61
2021/12/04 05:40:33;;;;;;;0.00;0.00;;;;;;;;;;1717689;28;20205;-62
2021/12/04 05:41:25;;;;;;;0.00;0.00;;;;;;;;;;1719531;28;20212;-63
2021/12/04 05:42:17;;;;;;;0.10;0.10;;;;;;;;;;1719402;28;20232;-63
2021/12/04 05:43:09;;;;;;;0.00;0.00;;;;;;;;;;1718961;28;20205;-62
2021/12/04 05:44:05;;;;;;;0.00;0.00;;;;;;;;;;1719443;28;20255;-62
2021/12/04 05:44:58;;;;;;;0.00;0.00;;;;;;;;;;1714035;28;20221;-63
2021/12/04 05:45:54;;;;;;;0.00;0.00;;;;;;;;;;1717676;28;20765;-62
2021/12/04 05:46:53;;;;;;;0.00;0.00;;;;;;;;;;1718010;28;20302;-64
2021/12/04 05:47:49;;;;;;;0.00;0.00;;;;;;;;;;1719637;28;20631;-64
2021/12/04 05:48:45;;;;;;;0.10;0.10;;;;;;;;;;1718834;28;20201;-63
2021/12/04 05:49:48;;;;;;;0.00;0.00;;;;;;;;;;1719532;28;20606;-64
2021/12/04 05:51:01;;;;;;;0.00;0.00;;;;;;;;;;1717581;28;20237;-63
2021/12/04 05:53:13;;;;;;;0.00;0.00;;;;;;;;;;1718983;28;20733;-63
2021/12/04 05:54:07;;;;;;;0.00;0.00;;;;;;;;;;1719361;28;20437;-62
2021/12/04 05:55:15;;;;;;;0.00;0.00;;;;;;;;;;1718590;28;20300;-63
2021/12/04 05:56:06;;;;;;;0.00;0.00;;;;;;;;;;1718764;28;20248;-63
2021/12/04 05:56:59;;;;;;;0.10;0.10;;;;;;;;;;1718213;28;20617;-63
2021/12/04 05:57:50;;;;;;;0.00;0.00;;;;;;;;;;1718386;28;20571;-63
2021/12/04 05:58:42;;;;;;;0.00;0.00;;;;;;;;;;1719465;28;20228;-63
2021/12/04 05:59:33;;;;;;;0.10;0.10;;;;;;;;;;1719408;28;20209;-63
2021/12/04 06:00:27;;;;;;;0.08;0.08;;;;;;;;;;1718574;28;20205;-62
2021/12/04 06:01:19;;;;;;;0.10;0.10;;;;;;;;;;1719495;28;20247;-63
2021/12/04 06:02:11;;;;;;;0.00;0.00;;;;;;;;;;1718250;28;20260;-64
2021/12/04 06:03:02;;;;;;;0.00;0.00;;;;;;;;;;1719038;28;20208;-64
2021/12/04 06:03:54;;;;;;;0.00;0.00;;;;;;;;;;1717560;28;20653;-62
2021/12/04 06:04:46;;;;;;;0.00;0.00;;;;;;;;;;1719234;28;20208;-63
2021/12/04 06:05:38;;;;;;;0.00;0.00;;;;;;;;;;1717958;28;20763;-64
2021/12/04 06:06:29;;;;;;;0.00;0.00;;;;;;;;;;1718688;28;20213;-64
2021/12/04 06:07:21;;;;;;;0.00;0.00;;;;;;;;;;1718350;28;20731;-64